Time;durP1;ratioP1;P1;durP2;ratioP2;P2;SDS_P1;SDS_P2;PMS_P1;PMS_P2;Temp;Humidity;BMP_temperature;BMP_pressure;BME280_temperature;BME280_humidity;BME280_pressure;Samples;Min_cycle;Max_cycle;Signal;HPM_P1;HPM_P2
2022/05/24 00:00:33;;;;;;;22.87;16.33;;;14.90;99.90;;;;;;5072849;28;20601;-74
2022/05/24 00:03:00;;;;;;;19.83;16.77;;;14.90;99.90;;;;;;5072754;28;20210;-74
2022/05/24 00:05:27;;;;;;;22.70;16.50;;;14.90;99.90;;;;;;5074547;28;20257;-74
2022/05/24 00:07:53;;;;;;;19.00;16.53;;;14.90;99.90;;;;;;5075129;28;20182;-74
2022/05/24 00:10:26;;;;;;;20.23;15.30;;;15.00;99.90;;;;;;5076269;28;20171;-74
2022/05/24 00:12:52;;;;;;;21.80;16.70;;;15.00;99.90;;;;;;5075021;28;20195;-75
2022/05/24 00:15:20;;;;;;;23.37;14.93;;;15.00;99.90;;;;;;5076710;28;20182;-74
2022/05/24 00:18:01;;;;;;;20.47;15.00;;;14.90;99.90;;;;;;5076179;28;20260;-74
2022/05/24 00:20:40;;;;;;;18.87;14.80;;;15.00;99.90;;;;;;5074981;28;20174;-74
2022/05/24 00:23:07;;;;;;;21.33;15.00;;;14.90;99.90;;;;;;5074718;28;20209;-74
2022/05/24 00:25:35;;;;;;;19.70;15.20;;;14.90;99.90;;;;;;5076043;28;20213;-74
2022/05/24 00:28:01;;;;;;;18.17;13.90;;;14.90;99.90;;;;;;5074747;28;20170;-74
2022/05/24 00:30:27;;;;;;;20.30;14.80;;;14.90;99.90;;;;;;5076219;28;20254;-74
2022/05/24 00:32:53;;;;;;;19.37;15.10;;;14.90;99.90;;;;;;5074530;28;20260;-74
2022/05/24 00:35:18;;;;;;;20.43;15.30;;;14.90;99.90;;;;;;5075833;28;20217;-74
2022/05/24 00:37:46;;;;;;;22.43;15.63;;;14.90;99.90;;;;;;5076435;28;20709;-73
2022/05/24 00:40:22;;;;;;;20.70;15.27;;;14.90;99.90;;;;;;5074599;28;20270;-74
2022/05/24 00:42:49;;;;;;;18.90;14.67;;;14.90;99.90;;;;;;5075888;28;20276;-74
2022/05/24 00:45:26;;;;;;;18.53;15.20;;;15.00;99.90;;;;;;5076391;28;20162;-74
2022/05/24 00:47:58;;;;;;;17.07;14.03;;;15.00;99.90;;;;;;5074646;28;20572;-74
2022/05/24 00:50:29;;;;;;;16.50;13.83;;;14.90;99.90;;;;;;5075872;28;20174;-74
2022/05/24 00:53:00;;;;;;;19.70;14.60;;;14.90;99.90;;;;;;5075662;28;20194;-73
2022/05/24 00:55:29;;;;;;;20.33;14.20;;;14.90;99.90;;;;;;5075762;28;20159;-74
2022/05/24 00:58:00;;;;;;;18.13;14.13;;;14.90;99.90;;;;;;5075492;28;20723;-73
2022/05/24 01:00:25;;;;;;;22.90;15.93;;;14.90;99.90;;;;;;5076079;28;20225;-74
2022/05/24 01:02:51;;;;;;;19.40;15.17;;;14.90;99.90;;;;;;5075715;28;20687;-73
2022/05/24 01:05:23;;;;;;;21.17;15.07;;;14.90;99.90;;;;;;5076071;28;20636;-74
2022/05/24 01:07:49;;;;;;;21.23;15.80;;;14.90;99.90;;;;;;5074197;28;20156;-73
2022/05/24 01:10:32;;;;;;;20.33;16.27;;;14.90;99.90;;;;;;5075815;28;20663;-74
2022/05/24 01:13:08;;;;;;;19.60;15.07;;;15.00;99.90;;;;;;5075532;28;20187;-75
2022/05/24 01:15:34;;;;;;;22.20;17.27;;;15.00;99.90;;;;;;5074499;28;20652;-73
2022/05/24 01:18:01;;;;;;;19.47;16.57;;;15.00;99.90;;;;;;5075613;28;20197;-73
2022/05/24 01:20:27;;;;;;;23.63;17.87;;;15.00;99.90;;;;;;5075289;28;20653;-73
2022/05/24 01:23:46;;;;;;;22.40;16.37;;;15.00;99.90;;;;;;5075526;28;20234;-74
2022/05/24 01:26:32;;;;;;;19.70;16.07;;;15.00;99.90;;;;;;4993667;28;20174;-73
2022/05/24 01:29:01;;;;;;;23.03;17.37;;;14.90;99.90;;;;;;5075090;28;20151;-74
2022/05/24 01:36:09;;;;;;;22.37;17.70;;;14.90;99.90;;;;;;5075467;28;20186;-73
2022/05/24 01:37:04;;;;;;;18.00;15.20;;;14.90;99.90;;;;;;5074657;28;20205;-74
2022/05/24 01:39:30;;;;;;;19.07;15.97;;;14.90;99.90;;;;;;5074959;28;20188;-73
2022/05/24 01:41:56;;;;;;;19.33;15.97;;;14.80;99.90;;;;;;5074786;28;20179;-74
2022/05/24 01:44:48;;;;;;;21.63;14.50;;;14.80;99.90;;;;;;5073391;28;20208;-74
2022/05/24 01:47:15;;;;;;;19.70;14.43;;;14.80;99.90;;;;;;5075054;28;20175;-74
2022/05/24 01:49:46;;;;;;;17.77;15.43;;;14.90;99.90;;;;;;5074514;28;20167;-74
2022/05/24 01:52:36;;;;;;;20.13;16.10;;;14.80;99.90;;;;;;5074531;28;20191;-74
2022/05/24 01:55:23;;;;;;;20.47;16.40;;;14.80;99.90;;;;;;5074426;28;20582;-73
2022/05/24 01:57:53;;;;;;;22.17;16.07;;;14.80;99.90;;;;;;5075206;28;20565;-73
2022/05/24 02:00:19;;;;;;;19.67;16.30;;;14.80;99.90;;;;;;5074430;28;20171;-74
2022/05/24 02:02:46;;;;;;;23.93;15.57;;;14.80;99.90;;;;;;5074184;28;20199;-73
2022/05/24 02:05:13;;;;;;;22.23;16.37;;;15.00;99.90;;;;;;5074133;28;20225;-73
2022/05/24 02:07:39;;;;;;;19.97;15.90;;;14.90;99.90;;;;;;5074086;28;20163;-74
2022/05/24 02:10:06;;;;;;;21.70;16.63;;;14.80;99.90;;;;;;5072886;28;20167;-73
2022/05/24 02:12:44;;;;;;;22.97;17.87;;;14.80;99.90;;;;;;5073924;28;20186;-73
2022/05/24 02:15:12;;;;;;;20.20;15.90;;;14.90;99.90;;;;;;5073047;28;20292;-73
2022/05/24 02:17:54;;;;;;;21.20;14.73;;;14.90;99.90;;;;;;5073772;28;20179;-74
2022/05/24 02:20:29;;;;;;;18.87;14.40;;;14.90;99.90;;;;;;5074232;28;20181;-74
2022/05/24 02:22:55;;;;;;;14.63;12.70;;;14.80;99.90;;;;;;5074006;28;20710;-74
2022/05/24 02:25:31;;;;;;;15.77;11.70;;;14.80;99.90;;;;;;5072527;28;20209;-74
2022/05/24 02:27:56;;;;;;;14.57;11.13;;;14.70;99.90;;;;;;5073504;28;20155;-74
2022/05/24 02:30:24;;;;;;;13.57;11.20;;;14.70;99.90;;;;;;5073755;28;20675;-74
2022/05/24 02:32:50;;;;;;;12.43;9.50;;;14.70;99.90;;;;;;5073282;28;20285;-75
2022/05/24 02:35:16;;;;;;;10.70;8.50;;;14.60;99.90;;;;;;5072902;28;20583;-74
2022/05/24 02:37:41;;;;;;;10.70;8.80;;;14.50;99.90;;;;;;5073681;28;20259;-74
2022/05/24 02:42:52;;;;;;;13.97;7.97;;;14.40;99.90;;;;;;5073188;28;20237;-74
2022/05/24 02:45:18;;;;;;;9.57;7.20;;;14.40;99.90;;;;;;5073452;28;20681;-73
2022/05/24 02:47:43;;;;;;;10.50;7.37;;;14.30;99.90;;;;;;5073819;28;20171;-74
2022/05/24 02:50:11;;;;;;;13.27;6.87;;;14.30;99.90;;;;;;5072134;28;20556;-74
2022/05/24 02:52:40;;;;;;;8.50;6.23;;;14.20;99.90;;;;;;5072109;28;20240;-73
2022/05/24 02:55:07;;;;;;;9.73;6.37;;;14.20;99.90;;;;;;5073479;28;20171;-74
2022/05/24 02:57:34;;;;;;;12.03;6.97;;;14.20;99.90;;;;;;5073397;28;20224;-73
2022/05/24 02:59:59;;;;;;;11.90;6.67;;;14.20;99.90;;;;;;5073485;28;20163;-74
2022/05/24 03:02:25;;;;;;;12.83;6.53;;;14.20;99.90;;;;;;5073160;28;20538;-74
2022/05/24 03:04:51;;;;;;;15.70;6.70;;;14.10;99.90;;;;;;5073423;28;20183;-73
2022/05/24 03:10:01;;;;;;;8.93;5.50;;;14.00;99.90;;;;;;5073684;28;20169;-74
2022/05/24 03:15:12;;;;;;;9.07;5.60;;;14.00;99.90;;;;;;5073157;28;20165;-74
2022/05/24 03:17:37;;;;;;;9.23;5.20;;;13.90;99.90;;;;;;5071751;28;20174;-72
2022/05/24 03:20:03;;;;;;;10.23;5.00;;;13.90;99.90;;;;;;5073173;28;20171;-74
2022/05/24 03:22:29;;;;;;;8.50;4.47;;;13.90;99.90;;;;;;5071993;28;20581;-73
2022/05/24 03:24:54;;;;;;;10.13;4.90;;;13.80;99.90;;;;;;5072985;28;20159;-74
2022/05/24 03:27:20;;;;;;;7.87;4.53;;;13.90;99.90;;;;;;5071675;28;20170;-74
2022/05/24 03:29:47;;;;;;;8.07;4.77;;;13.90;99.90;;;;;;5073005;28;20246;-74
2022/05/24 03:32:15;;;;;;;10.70;5.00;;;13.90;99.90;;;;;;5072850;28;20183;-74
2022/05/24 03:34:41;;;;;;;10.37;5.13;;;13.80;99.90;;;;;;5071551;28;20175;-74
2022/05/24 03:37:08;;;;;;;9.97;5.10;;;13.80;99.90;;;;;;5072799;28;20163;-74
2022/05/24 03:39:34;;;;;;;9.27;5.10;;;13.80;99.90;;;;;;5073573;28;20182;-74
2022/05/24 03:42:01;;;;;;;9.30;5.27;;;13.80;99.90;;;;;;5075466;28;20182;-74
2022/05/24 03:44:26;;;;;;;10.90;5.07;;;13.80;99.90;;;;;;5076902;28;20277;-74
2022/05/24 03:46:53;;;;;;;8.53;4.93;;;13.80;99.90;;;;;;5077120;28;20198;-73
2022/05/24 03:49:18;;;;;;;11.00;5.60;;;13.90;99.90;;;;;;5076790;28;20213;-74
2022/05/24 03:51:45;;;;;;;6.90;5.37;;;13.70;99.90;;;;;;5076993;28;20175;-73
2022/05/24 03:54:10;;;;;;;10.27;5.63;;;13.70;99.90;;;;;;5075336;28;20233;-74
2022/05/24 03:56:37;;;;;;;8.90;5.77;;;13.80;99.90;;;;;;5076990;28;20209;-73
2022/05/24 03:59:03;;;;;;;9.80;5.63;;;13.70;99.90;;;;;;5075451;28;20238;-73
2022/05/24 04:01:29;;;;;;;9.13;5.40;;;13.70;99.90;;;;;;5076942;28;20171;-73
2022/05/24 04:03:55;;;;;;;10.47;5.57;;;13.70;99.90;;;;;;5076708;28;20225;-74
2022/05/24 04:06:20;;;;;;;8.40;5.97;;;13.70;99.90;;;;;;5076423;28;20167;-73
2022/05/24 04:08:46;;;;;;;10.83;5.60;;;13.70;99.90;;;;;;5076427;28;20178;-73
2022/05/24 04:11:12;;;;;;;8.50;5.60;;;13.70;99.90;;;;;;5076571;28;20284;-74
2022/05/24 04:13:40;;;;;;;9.57;6.13;;;13.90;99.90;;;;;;5076344;28;20672;-74
2022/05/24 04:16:07;;;;;;;9.63;5.43;;;13.70;99.90;;;;;;5074937;28;20186;-74
2022/05/24 04:18:33;;;;;;;9.23;5.63;;;13.70;99.90;;;;;;5075183;28;20225;-74
2022/05/24 04:20:58;;;;;;;10.97;5.23;;;13.70;99.90;;;;;;5076449;28;20175;-73
2022/05/24 04:23:25;;;;;;;8.97;5.37;;;13.70;99.90;;;;;;5076149;28;20252;-73
2022/05/24 04:25:52;;;;;;;10.00;5.10;;;13.70;99.90;;;;;;5076217;28;20167;-73
2022/05/24 04:28:18;;;;;;;7.20;4.37;;;13.70;99.90;;;;;;5074752;28;20312;-73
2022/05/24 04:30:46;;;;;;;6.23;3.93;;;13.70;99.90;;;;;;5074731;28;20199;-73
2022/05/24 04:33:11;;;;;;;9.37;4.53;;;13.70;99.90;;;;;;5076182;28;20219;-73
2022/05/24 04:35:37;;;;;;;10.50;5.27;;;13.70;99.90;;;;;;5074919;28;20680;-72
2022/05/24 04:38:02;;;;;;;7.77;4.20;;;13.70;99.90;;;;;;5076021;28;20174;-73
2022/05/24 04:43:12;;;;;;;7.63;4.40;;;13.70;99.90;;;;;;5101690;22;20225;-79
2022/05/24 04:45:38;;;;;;;7.53;3.80;;;13.70;99.90;;;;;;5092580;28;20171;-79
2022/05/24 04:48:06;;;;;;;6.80;4.00;;;13.70;99.90;;;;;;5077452;28;20167;-80
2022/05/24 04:50:32;;;;;;;7.73;3.90;;;13.70;99.90;;;;;;5092779;28;20175;-79
2022/05/24 04:52:58;;;;;;;9.73;3.60;;;13.70;99.90;;;;;;5092819;28;20191;-79
2022/05/24 04:55:26;;;;;;;8.60;3.77;;;13.60;99.90;;;;;;5076998;28;20171;-79
2022/05/24 04:57:53;;;;;;;6.33;3.63;;;13.70;99.90;;;;;;5077109;28;20633;-79
2022/05/24 05:00:20;;;;;;;8.17;4.10;;;13.60;99.90;;;;;;5077078;28;20171;-78
2022/05/24 05:02:46;;;;;;;10.87;4.07;;;13.60;99.90;;;;;;5076785;28;20676;-79
2022/05/24 05:05:13;;;;;;;7.27;3.67;;;13.60;99.90;;;;;;5092765;28;20224;-79
2022/05/24 05:07:39;;;;;;;9.63;3.30;;;13.60;99.90;;;;;;5077113;28;20664;-79
2022/05/24 05:10:05;;;;;;;7.00;3.10;;;13.60;99.90;;;;;;5092752;28;20181;-78
2022/05/24 05:12:31;;;;;;;8.33;4.00;;;13.50;99.90;;;;;;5077871;28;20250;-79
2022/05/24 05:14:56;;;;;;;8.30;3.00;;;13.60;99.90;;;;;;5079823;28;20198;-79
2022/05/24 05:17:22;;;;;;;9.57;3.20;;;13.50;99.90;;;;;;5079240;28;20691;-78
2022/05/24 05:19:48;;;;;;;5.80;2.67;;;13.50;99.90;;;;;;5079154;28;20183;-79
2022/05/24 05:22:16;;;;;;;6.27;2.57;;;13.50;99.90;;;;;;5094243;28;20175;-79
2022/05/24 05:24:42;;;;;;;7.17;2.63;;;13.50;99.90;;;;;;5093901;28;20195;-79
2022/05/24 05:27:08;;;;;;;7.00;2.73;;;13.40;99.90;;;;;;5094665;28;20182;-79
2022/05/24 05:32:23;;;;;;;4.97;2.33;;;13.40;99.90;;;;;;5080000;28;20524;-79
2022/05/24 05:34:49;;;;;;;7.63;2.27;;;13.40;99.90;;;;;;5079175;28;20165;-79
2022/05/24 05:37:15;;;;;;;5.87;2.33;;;13.30;99.90;;;;;;5094440;28;20265;-78
2022/05/24 05:39:41;;;;;;;9.30;2.40;;;13.40;99.90;;;;;;5095507;28;20185;-79
2022/05/24 05:42:07;;;;;;;6.17;2.33;;;13.30;99.90;;;;;;5094434;28;20183;-79
2022/05/24 05:44:32;;;;;;;2.97;1.93;;;13.30;99.90;;;;;;5080279;28;20251;-78
2022/05/24 05:46:58;;;;;;;4.43;1.90;;;13.30;99.90;;;;;;5095011;28;20196;-78
2022/05/24 05:49:23;;;;;;;7.53;1.93;;;13.20;99.90;;;;;;5077207;28;20270;-78
2022/05/24 05:51:49;;;;;;;7.60;2.03;;;13.30;99.90;;;;;;5077550;28;20163;-78
2022/05/24 05:54:15;;;;;;;7.30;1.80;;;13.20;99.90;;;;;;5092659;28;20202;-78
2022/05/24 05:56:41;;;;;;;8.60;1.70;;;13.20;99.90;;;;;;5079957;28;20639;-79
2022/05/24 05:59:07;;;;;;;6.33;2.37;;;13.20;99.90;;;;;;5080217;28;20219;-79
2022/05/24 06:01:33;;;;;;;8.13;2.20;;;13.20;99.90;;;;;;5078629;28;20182;-78
2022/05/24 06:04:00;;;;;;;7.97;2.00;;;13.10;99.90;;;;;;5096206;28;20203;-78
2022/05/24 06:06:29;;;;;;;4.73;2.00;;;13.10;99.90;;;;;;5080357;28;20557;-79
2022/05/24 06:08:55;;;;;;;6.40;1.70;;;13.10;99.90;;;;;;5080942;28;20534;-79
2022/05/24 06:11:22;;;;;;;4.17;1.70;;;13.00;99.90;;;;;;5079074;28;20164;-78
2022/05/24 06:13:48;;;;;;;6.13;1.80;;;13.00;99.90;;;;;;5078535;28;20212;-79
2022/05/24 06:16:14;;;;;;;5.80;2.20;;;12.90;99.90;;;;;;5093858;28;20230;-78
2022/05/24 06:18:39;;;;;;;6.80;1.90;;;12.90;99.90;;;;;;5078994;28;20186;-79
2022/05/24 06:21:06;;;;;;;5.80;2.67;;;12.90;99.90;;;;;;5080304;28;20178;-78
2022/05/24 06:23:31;;;;;;;3.47;1.80;;;12.80;99.90;;;;;;5079841;28;20195;-77
2022/05/24 06:25:57;;;;;;;5.00;2.00;;;12.90;99.90;;;;;;5096443;28;20167;-80
2022/05/24 06:28:23;;;;;;;7.07;1.67;;;12.80;99.90;;;;;;5097141;28;20167;-79
2022/05/24 06:30:48;;;;;;;7.30;2.13;;;12.90;99.90;;;;;;5098186;28;20174;-79
2022/05/24 06:33:14;;;;;;;6.40;2.17;;;12.90;99.90;;;;;;5098527;28;20670;-79
2022/05/24 06:35:41;;;;;;;5.50;1.93;;;12.90;99.90;;;;;;5097925;28;20229;-79
2022/05/24 06:38:07;;;;;;;7.53;2.10;;;12.90;99.90;;;;;;5097581;28;20179;-79
2022/05/24 06:40:33;;;;;;;3.60;1.93;;;12.90;99.90;;;;;;5097928;28;20179;-79
2022/05/24 06:42:59;;;;;;;5.10;2.00;;;12.90;99.90;;;;;;5095651;28;20214;-79
2022/05/24 06:45:25;;;;;;;5.67;2.10;;;12.90;99.90;;;;;;5097418;28;20178;-80
2022/05/24 06:47:51;;;;;;;4.27;1.90;;;12.90;99.90;;;;;;5098419;28;20188;-80
2022/05/24 06:50:16;;;;;;;5.57;1.97;;;13.00;99.90;;;;;;5099011;28;20262;-80
2022/05/24 06:52:43;;;;;;;2.20;1.60;;;13.00;99.90;;;;;;5098451;28;20213;-80
2022/05/24 06:55:09;;;;;;;4.30;1.97;;;12.90;99.90;;;;;;5100260;28;20171;-80
2022/05/24 06:57:35;;;;;;;7.33;2.50;;;12.90;99.90;;;;;;5098282;28;20242;-80
2022/05/24 07:02:46;;;;;;;6.67;2.10;;;13.00;99.90;;;;;;5096796;28;20202;-80
2022/05/24 07:05:20;;;;;;;6.67;1.90;;;13.00;99.90;;;;;;5098611;28;20200;-80
2022/05/24 07:07:45;;;;;;;6.80;2.30;;;13.00;99.90;;;;;;5091452;28;20185;-79
2022/05/24 07:10:15;;;;;;;7.80;2.30;;;13.10;99.90;;;;;;5091636;28;20552;-79
2022/05/24 07:12:41;;;;;;;10.53;2.50;;;13.30;99.90;;;;;;5091733;28;20185;-79
2022/05/24 07:15:07;;;;;;;7.57;2.73;;;13.30;99.90;;;;;;5091364;28;20687;-79
2022/05/24 07:17:33;;;;;;;6.17;1.97;;;13.40;99.90;;;;;;5091377;28;20171;-79
2022/05/24 07:19:59;;;;;;;3.00;1.40;;;13.40;99.90;;;;;;5091532;28;20174;-80
2022/05/24 07:22:24;;;;;;;7.40;2.30;;;13.40;99.90;;;;;;5091647;28;20171;-79
2022/05/24 07:24:50;;;;;;;5.83;2.30;;;13.50;99.90;;;;;;5092221;28;20252;-79
2022/05/24 07:27:19;;;;;;;9.43;2.13;;;13.50;99.90;;;;;;5091255;28;20194;-79
2022/05/24 07:29:45;;;;;;;5.10;2.27;;;13.60;99.90;;;;;;5090921;28;20580;-78
2022/05/24 07:32:11;;;;;;;5.83;2.40;;;13.50;99.90;;;;;;5090828;28;20167;-79
2022/05/24 07:34:37;;;;;;;7.30;2.20;;;13.50;99.90;;;;;;5091625;28;20194;-79
2022/05/24 07:37:05;;;;;;;8.40;2.23;;;13.60;99.90;;;;;;5091721;28;20649;-79
2022/05/24 07:39:32;;;;;;;8.10;2.33;;;13.50;99.90;;;;;;5091486;28;20178;-79
2022/05/24 07:47:21;;;;;;;5.63;2.17;;;13.70;99.90;;;;;;5075359;28;20261;-80
2022/05/24 07:49:48;;;;;;;5.10;1.97;;;13.70;99.90;;;;;;5090768;28;20178;-80
2022/05/24 07:52:14;;;;;;;6.07;2.10;;;13.80;99.90;;;;;;5091873;28;20633;-79
2022/05/24 07:54:39;;;;;;;5.00;1.77;;;13.90;99.90;;;;;;5092711;28;20191;-79
2022/05/24 07:57:09;;;;;;;4.30;1.77;;;13.90;99.90;;;;;;5091888;28;20183;-78
2022/05/24 07:59:37;;;;;;;3.07;2.00;;;13.90;99.90;;;;;;5102870;28;20206;-79
2022/05/24 08:02:03;;;;;;;3.30;1.77;;;13.90;99.90;;;;;;5110370;28;20258;-78
2022/05/24 08:04:28;;;;;;;7.23;2.13;;;14.00;99.90;;;;;;5106731;28;20206;-78
2022/05/24 08:06:55;;;;;;;4.10;1.87;;;14.20;99.90;;;;;;5106892;28;20182;-78
2022/05/24 08:09:21;;;;;;;6.67;2.30;;;14.20;99.90;;;;;;5110161;28;20213;-78
2022/05/24 08:11:47;;;;;;;8.67;2.50;;;14.30;99.90;;;;;;5108625;28;20250;-78
2022/05/24 08:14:12;;;;;;;5.20;1.80;;;14.30;99.90;;;;;;5108653;28;20194;-79
2022/05/24 08:16:38;;;;;;;5.50;2.03;;;14.30;99.90;;;;;;5100383;28;20179;-79
2022/05/24 08:19:04;;;;;;;4.53;1.60;;;14.30;99.90;;;;;;5091309;28;20186;-77
2022/05/24 08:21:31;;;;;;;2.77;1.60;;;14.40;99.90;;;;;;5100699;28;20178;-79
2022/05/24 08:23:57;;;;;;;5.57;2.57;;;14.50;99.90;;;;;;5109438;28;20187;-78
2022/05/24 08:26:23;;;;;;;5.20;2.03;;;14.50;1.00;;;;;;5113272;28;20198;-79
2022/05/24 08:28:50;;;;;;;5.23;1.93;;;14.60;60.70;;;;;;5108054;28;20187;-78
2022/05/24 08:31:17;;;;;;;4.37;1.60;;;14.70;99.90;;;;;;5105703;28;20224;-78
2022/05/24 08:33:45;;;;;;;5.90;1.80;;;14.80;1.00;;;;;;5104935;28;20281;-78
2022/05/24 08:36:11;;;;;;;4.60;1.87;;;14.90;1.00;;;;;;5088756;28;20175;-79
2022/05/24 08:38:39;;;;;;;5.53;1.90;;;14.90;1.00;;;;;;5108785;28;20593;-79
2022/05/24 08:41:11;;;;;;;6.77;1.93;;;14.80;1.00;;;;;;5085176;28;20171;-79
2022/05/24 08:49:37;;;;;;;4.87;1.80;;;14.50;1.00;;;;;;5082133;28;20204;-78
2022/05/24 08:52:07;;;;;;;9.70;2.33;;;14.60;1.00;;;;;;5098606;28;20175;-79
2022/05/24 08:54:35;;;;;;;4.00;1.90;;;14.50;1.00;;;;;;5099448;28;20202;-78
2022/05/24 08:57:04;;;;;;;3.47;1.50;;;14.50;99.90;;;;;;5098760;28;20268;-79
2022/05/24 08:59:33;;;;;;;2.80;1.40;;;14.50;99.90;;;;;;5096341;28;20174;-78
2022/05/24 09:01:59;;;;;;;8.23;1.80;;;14.50;99.90;;;;;;5098021;28;20171;-78
2022/05/24 09:04:26;;;;;;;5.90;2.13;;;14.40;3.30;;;;;;5098281;28;20218;-79
2022/05/24 09:06:55;;;;;;;3.57;1.90;;;14.50;1.00;;;;;;5097157;28;20225;-79
2022/05/24 09:09:52;;;;;;;7.93;2.10;;;14.50;1.00;;;;;;5098279;28;20171;-78
2022/05/24 09:12:37;;;;;;;3.83;1.73;;;14.50;99.90;;;;;;5098342;28;20194;-78
2022/05/24 09:15:24;;;;;;;2.77;1.53;;;14.50;1.00;;;;;;5097821;28;20526;-79
2022/05/24 09:18:20;;;;;;;5.80;1.67;;;14.60;99.90;;;;;;5096084;28;20179;-78
2022/05/24 09:20:46;;;;;;;3.33;1.37;;;14.70;1.00;;;;;;5094902;28;20178;-78
2022/05/24 09:23:24;;;;;;;5.30;2.07;;;14.70;1.00;;;;;;5094651;28;20210;-78
2022/05/24 09:26:11;;;;;;;8.30;1.70;;;14.70;99.90;;;;;;5095879;28;20163;-78
2022/05/24 09:28:48;;;;;;;3.13;1.20;;;14.60;99.90;;;;;;5095008;28;20163;-78
2022/05/24 09:31:40;;;;;;;4.50;1.50;;;14.60;99.90;;;;;;5092107;28;20633;-78
2022/05/24 09:34:24;;;;;;;5.27;1.03;;;14.70;1.00;;;;;;5067900;28;20207;-78
2022/05/24 09:36:55;;;;;;;2.80;1.13;;;14.70;30.90;;;;;;5091691;28;20224;-78
2022/05/24 09:39:30;;;;;;;4.80;1.40;;;14.70;1.00;;;;;;5093702;28;20529;-78
2022/05/24 09:42:14;;;;;;;3.03;1.30;;;14.70;99.90;;;;;;5095657;28;20170;-79
2022/05/24 09:45:03;;;;;;;5.40;1.60;;;14.70;1.00;;;;;;5092811;28;20218;-78
2022/05/24 09:47:33;;;;;;;4.50;1.30;;;14.70;99.90;;;;;;5092255;28;20167;-77
2022/05/24 09:50:18;;;;;;;3.17;1.07;;;14.70;1.00;;;;;;5090920;28;20178;-78
2022/05/24 09:53:06;;;;;;;4.77;1.30;;;14.70;1.00;;;;;;5092147;28;20695;-78
2022/05/24 09:55:39;;;;;;;4.17;1.20;;;14.90;99.90;;;;;;5092102;28;20164;-78
2022/05/24 09:58:31;;;;;;;4.30;1.00;;;15.10;1.00;;;;;;5094783;28;20236;-78
2022/05/24 10:01:01;;;;;;;2.97;1.00;;;15.30;1.00;;;;;;5075743;28;20183;-78
2022/05/24 10:03:32;;;;;;;2.50;1.13;;;15.50;1.00;;;;;;5076377;28;20202;-78
2022/05/24 10:06:28;;;;;;;1.53;0.80;;;15.70;1.00;;;;;;5092440;28;20214;-78
2022/05/24 10:08:58;;;;;;;1.57;0.80;;;15.90;99.90;;;;;;5092160;28;20653;-78
2022/05/24 10:11:47;;;;;;;2.47;0.90;;;15.90;99.90;;;;;;5091126;28;20186;-78
2022/05/24 10:14:40;;;;;;;7.00;1.47;;;16.10;1.00;;;;;;5091375;28;20198;-78
2022/05/24 10:17:11;;;;;;;2.10;1.03;;;16.20;1.00;;;;;;5091166;28;20254;-78
2022/05/24 10:19:39;;;;;;;1.83;0.87;;;16.10;1.00;;;;;;5090096;28;20259;-78
2022/05/24 10:22:31;;;;;;;2.30;1.10;;;16.00;1.00;;;;;;5091168;28;20226;-78
2022/05/24 10:25:19;;;;;;;2.53;1.20;;;15.90;1.00;;;;;;5091151;28;20218;-77
2022/05/24 10:28:06;;;;;;;2.47;0.90;;;15.70;1.00;;;;;;5045312;28;20197;-77
2022/05/24 10:30:57;;;;;;;3.60;1.07;;;15.70;99.90;;;;;;5090374;28;20163;-77
2022/05/24 10:39:38;;;;;;;2.60;0.90;;;16.10;99.90;;;;;;5078247;28;20643;-78
2022/05/24 10:42:13;;;;;;;3.57;1.20;;;16.30;99.90;;;;;;5093157;28;20175;-77
2022/05/24 10:45:05;;;;;;;2.87;1.07;;;16.50;1.00;;;;;;5111446;22;20207;-93
2022/05/24 10:47:49;;;;;;;2.57;1.20;;;16.50;1.00;;;;;;5077773;28;20152;-93
2022/05/24 10:50:29;;;;;;;1.93;1.07;;;16.50;1.00;;;;;;5077445;28;20155;-94
2022/05/24 10:52:57;;;;;;;2.70;1.40;;;16.50;99.90;;;;;;5077234;28;20231;-93
2022/05/24 10:55:40;;;;;;;2.47;0.80;;;16.40;1.00;;;;;;5077953;28;20171;-94
2022/05/24 10:58:15;;;;;;;5.30;1.20;;;16.30;1.00;;;;;;5078419;28;20160;-93
2022/05/24 11:00:49;;;;;;;4.40;1.00;;;16.10;99.90;;;;;;5077748;28;20155;-93
2022/05/24 11:03:17;;;;;;;3.80;0.90;;;16.20;99.90;;;;;;5078496;28;20215;-92
2022/05/24 11:05:49;;;;;;;4.00;0.80;;;16.00;1.00;;;;;;5077103;28;20164;-93
2022/05/24 11:08:34;;;;;;;2.00;0.83;;;16.20;99.90;;;;;;5077720;28;20156;-93
2022/05/24 11:11:25;;;;;;;1.80;0.80;;;16.30;7.20;;;;;;5077830;28;20171;-93
2022/05/24 11:14:13;;;;;;;4.30;1.00;;;16.30;1.00;;;;;;5077906;28;20230;-92
2022/05/24 11:16:51;;;;;;;4.23;1.20;;;16.30;1.00;;;;;;5077192;28;20187;-93
2022/05/24 11:19:17;;;;;;;4.13;1.10;;;16.30;1.00;;;;;;5075256;28;20179;-94
2022/05/24 11:22:07;;;;;;;8.13;1.13;;;16.30;99.90;;;;;;5076329;28;20186;-94
2022/05/24 11:24:49;;;;;;;2.20;0.97;;;16.40;99.90;;;;;;5076159;28;20215;-94
2022/05/24 11:27:22;;;;;;;1.47;0.77;;;16.50;99.90;;;;;;5076813;28;20181;-93
2022/05/24 11:30:17;;;;;;;4.17;1.13;;;16.60;6.10;;;;;;5076849;28;20194;-94
2022/05/24 11:32:51;;;;;;;2.43;1.07;;;16.80;99.90;;;;;;5077221;28;20203;-94
2022/05/24 11:35:20;;;;;;;2.57;0.90;;;16.90;1.00;;;;;;5076999;28;20160;-94
2022/05/24 11:37:55;;;;;;;3.03;1.20;;;16.80;80.80;;;;;;5077350;28;20167;-94
2022/05/24 11:40:33;;;;;;;2.13;1.07;;;16.80;99.90;;;;;;5077352;28;20163;-93
2022/05/24 11:43:34;;;;;;;2.93;1.23;;;16.80;99.90;;;;;;5076623;28;20267;-92
2022/05/24 11:46:38;;;;;;;3.40;0.80;;;17.00;99.90;;;;;;5076485;28;20196;-93
2022/05/24 11:49:09;;;;;;;2.50;0.93;;;17.20;1.00;;;;;;5074959;28;20164;-93
2022/05/24 11:51:45;;;;;;;2.67;0.90;;;17.40;1.00;;;;;;5073560;28;20167;-94
2022/05/24 11:54:17;;;;;;;2.23;0.70;;;17.50;1.00;;;;;;5076870;28;20184;-93
2022/05/24 11:57:16;;;;;;;3.40;0.87;;;17.70;1.00;;;;;;5075280;28;20172;-93
2022/05/24 11:59:43;;;;;;;1.60;0.80;;;17.90;22.00;;;;;;5075227;28;20171;-92
2022/05/24 12:02:32;;;;;;;1.20;0.73;;;18.10;99.90;;;;;;5080755;28;20168;-93
2022/05/24 12:08:06;;;;;;;3.23;0.97;;;17.80;1.00;;;;;;5081482;28;20166;-93
2022/05/24 12:10:43;;;;;;;1.77;0.93;;;17.70;1.00;;;;;;5079819;28;20240;-94
2022/05/24 12:13:33;;;;;;;1.60;0.70;;;17.60;99.90;;;;;;5078934;28;20180;-94
2022/05/24 12:16:02;;;;;;;2.30;0.90;;;17.50;1.00;;;;;;5078306;28;20152;-93
2022/05/24 12:18:41;;;;;;;2.23;0.93;;;17.50;99.90;;;;;;5080245;28;20179;-92
2022/05/24 12:21:07;;;;;;;4.00;1.30;;;17.30;1.00;;;;;;5080032;28;20168;-93
2022/05/24 12:23:41;;;;;;;1.50;1.03;;;17.10;1.00;;;;;;5079963;28;20254;-93
2022/05/24 12:26:15;;;;;;;1.60;0.90;;;17.00;1.00;;;;;;5078124;28;20162;-89
2022/05/24 12:28:46;;;;;;;2.63;1.20;;;16.90;1.00;;;;;;5078930;28;20194;-92
2022/05/24 12:31:24;;;;;;;5.53;1.30;;;16.70;20.30;;;;;;5079042;28;20156;-92
2022/05/24 12:33:54;;;;;;;1.83;1.00;;;16.80;99.90;;;;;;5079411;28;20199;-92
2022/05/24 12:36:43;;;;;;;9.33;1.40;;;16.70;1.00;;;;;;5079658;28;20226;-92
2022/05/24 12:39:12;;;;;;;1.97;0.90;;;16.80;1.00;;;;;;5074430;28;20172;-91
2022/05/24 12:41:42;;;;;;;5.20;1.03;;;16.90;18.70;;;;;;5073678;28;20237;-91
2022/05/24 12:44:39;;;;;;;2.23;0.70;;;17.00;1.00;;;;;;5077157;28;20283;-91
2022/05/24 12:47:07;;;;;;;4.07;0.80;;;17.10;99.90;;;;;;5072974;28;20191;-92
2022/05/24 12:49:36;;;;;;;0.67;0.53;;;17.40;1.00;;;;;;5075296;28;20179;-92
2022/05/24 12:52:18;;;;;;;1.37;0.60;;;17.50;1.00;;;;;;5079883;28;20152;-91
2022/05/24 12:54:49;;;;;;;0.53;0.33;;;17.60;1.00;;;;;;5079898;28;20180;-91
2022/05/24 12:57:28;;;;;;;2.03;0.60;;;17.70;17.50;;;;;;5079836;28;20164;-92
2022/05/24 13:00:21;;;;;;;1.33;0.70;;;17.70;1.00;;;;;;5079206;28;20158;-92
2022/05/24 13:02:52;;;;;;;2.43;0.80;;;17.80;1.00;;;;;;5074849;28;20199;-92
2022/05/24 13:05:26;;;;;;;1.83;0.70;;;18.00;1.00;;;;;;5075183;28;20164;-92
2022/05/24 13:07:51;;;;;;;1.77;0.70;;;18.10;1.00;;;;;;5070800;28;20172;-92
2022/05/24 13:10:26;;;;;;;2.30;0.80;;;18.30;99.90;;;;;;5076468;28;20194;-92
2022/05/24 13:12:59;;;;;;;1.90;0.60;;;18.30;1.00;;;;;;5074942;28;20195;-91
2022/05/24 13:15:29;;;;;;;5.33;1.03;;;18.20;1.00;;;;;;5078000;28;20171;-91
2022/05/24 13:18:02;;;;;;;3.80;0.80;;;17.80;1.00;;;;;;5079581;28;20160;-92
2022/05/24 13:20:32;;;;;;;1.97;0.73;;;18.00;1.00;;;;;;5079089;28;20178;-92
2022/05/24 13:23:06;;;;;;;3.77;0.87;;;18.10;99.90;;;;;;5078894;28;20260;-90
2022/05/24 13:25:44;;;;;;;3.17;0.73;;;18.10;99.90;;;;;;5079568;28;20182;-92
2022/05/24 13:28:11;;;;;;;3.13;1.20;;;18.10;99.90;;;;;;5079288;28;20213;-90
2022/05/24 13:36:16;;;;;;;0.87;0.50;;;16.80;1.00;;;;;;5099694;28;20737;-75
2022/05/24 13:38:43;;;;;;;1.93;0.60;;;16.20;44.90;;;;;;5100345;28;20205;-76
2022/05/24 13:41:10;;;;;;;4.93;0.80;;;15.60;99.90;;;;;;5098912;28;20201;-74
2022/05/24 13:43:42;;;;;;;1.47;0.77;;;15.00;1.00;;;;;;5098738;28;20205;-73
2022/05/24 13:46:16;;;;;;;3.00;0.90;;;14.80;99.90;;;;;;5098633;28;20181;-74
2022/05/24 13:48:57;;;;;;;3.40;0.93;;;14.50;99.90;;;;;;5097482;28;20267;-74
2022/05/24 13:51:33;;;;;;;4.73;1.30;;;14.50;99.90;;;;;;5098301;28;20205;-74